sensor_id;sensor_type;location;lat;lon;timestamp;pressure;altitude;pressure_sealevel;temperature;humidity
69855;BME280;57146;48.140;16.304;2024-01-10T00:01:02;100972.16;;;-9.26;84.05
69855;BME280;57146;48.140;16.304;2024-01-10T00:03:29;100982.78;;;-9.21;84.28
69855;BME280;57146;48.140;16.304;2024-01-10T00:05:56;100978.34;;;-9.19;83.69
69855;BME280;57146;48.140;16.304;2024-01-10T00:08:24;100964.78;;;-9.20;83.49
69855;BME280;57146;48.140;16.304;2024-01-10T00:10:53;100964.53;;;-9.17;83.71
69855;BME280;57146;48.140;16.304;2024-01-10T00:13:21;100966.13;;;-9.16;83.61
69855;BME280;57146;48.140;16.304;2024-01-10T00:15:48;100968.69;;;-9.16;83.86
69855;BME280;57146;48.140;16.304;2024-01-10T00:18:16;100966.03;;;-9.14;83.54
69855;BME280;57146;48.140;16.304;2024-01-10T00:20:43;100960.13;;;-9.05;83.45
69855;BME280;57146;48.140;16.304;2024-01-10T00:23:10;100970.34;;;-8.95;83.38
69855;BME280;57146;48.140;16.304;2024-01-10T00:25:37;100949.44;;;-8.89;82.90
69855;BME280;57146;48.140;16.304;2024-01-10T00:28:05;100956.28;;;-8.80;82.56
69855;BME280;57146;48.140;16.304;2024-01-10T00:30:32;100957.63;;;-8.85;82.34
69855;BME280;57146;48.140;16.304;2024-01-10T00:32:59;100957.09;;;-8.89;82.02
69855;BME280;57146;48.140;16.304;2024-01-10T00:35:26;100957.72;;;-8.97;82.37
69855;BME280;57146;48.140;16.304;2024-01-10T00:37:53;100958.53;;;-9.06;81.97
69855;BME280;57146;48.140;16.304;2024-01-10T00:40:21;100959.19;;;-9.13;82.31
69855;BME280;57146;48.140;16.304;2024-01-10T00:42:48;100959.53;;;-9.18;82.06
69855;BME280;57146;48.140;16.304;2024-01-10T00:45:15;100964.09;;;-9.22;82.37
69855;BME280;57146;48.140;16.304;2024-01-10T00:47:43;100958.88;;;-9.20;82.39
69855;BME280;57146;48.140;16.304;2024-01-10T00:50:10;100961.69;;;-9.23;82.83
69855;BME280;57146;48.140;16.304;2024-01-10T00:52:37;100956.72;;;-9.25;82.78
69855;BME280;57146;48.140;16.304;2024-01-10T00:55:05;100952.69;;;-9.27;82.95
69855;BME280;57146;48.140;16.304;2024-01-10T00:57:33;100963.00;;;-9.29;82.92
69855;BME280;57146;48.140;16.304;2024-01-10T01:00:04;100966.63;;;-9.31;83.32
69855;BME280;57146;48.140;16.304;2024-01-10T01:02:32;100968.38;;;-9.32;83.05
69855;BME280;57146;48.140;16.304;2024-01-10T01:05:00;100969.84;;;-9.39;83.53
69855;BME280;57146;48.140;16.304;2024-01-10T01:07:28;100968.59;;;-9.45;83.57
69855;BME280;57146;48.140;16.304;2024-01-10T01:09:56;100967.78;;;-9.45;83.78
69855;BME280;57146;48.140;16.304;2024-01-10T01:12:24;100968.69;;;-9.46;83.62
69855;BME280;57146;48.140;16.304;2024-01-10T01:14:51;100971.41;;;-9.48;83.47
69855;BME280;57146;48.140;16.304;2024-01-10T01:17:19;100972.34;;;-9.49;83.39
69855;BME280;57146;48.140;16.304;2024-01-10T01:19:47;100970.16;;;-9.53;83.17
69855;BME280;57146;48.140;16.304;2024-01-10T01:22:14;100970.69;;;-9.50;82.97
69855;BME280;57146;48.140;16.304;2024-01-10T01:24:42;100972.19;;;-9.47;83.41
69855;BME280;57146;48.140;16.304;2024-01-10T01:27:09;100968.97;;;-9.49;83.62
69855;BME280;57146;48.140;16.304;2024-01-10T01:29:36;100964.94;;;-9.52;84.03
69855;BME280;57146;48.140;16.304;2024-01-10T01:32:03;100968.44;;;-9.53;83.94
69855;BME280;57146;48.140;16.304;2024-01-10T01:34:31;100972.16;;;-9.57;83.69
69855;BME280;57146;48.140;16.304;2024-01-10T01:36:58;100965.19;;;-9.55;82.99
69855;BME280;57146;48.140;16.304;2024-01-10T01:39:26;100961.03;;;-9.56;83.48
69855;BME280;57146;48.140;16.304;2024-01-10T01:41:54;100964.63;;;-9.58;83.73
69855;BME280;57146;48.140;16.304;2024-01-10T01:44:21;100959.69;;;-9.60;83.83
69855;BME280;57146;48.140;16.304;2024-01-10T01:46:49;100957.13;;;-9.60;83.57
69855;BME280;57146;48.140;16.304;2024-01-10T01:49:17;100966.25;;;-9.57;83.68
69855;BME280;57146;48.140;16.304;2024-01-10T01:51:45;100960.59;;;-9.61;83.99
69855;BME280;57146;48.140;16.304;2024-01-10T01:54:13;100957.63;;;-9.66;84.01
69855;BME280;57146;48.140;16.304;2024-01-10T01:56:42;100961.22;;;-9.69;84.03
69855;BME280;57146;48.140;16.304;2024-01-10T01:59:11;100958.94;;;-9.72;83.28
69855;BME280;57146;48.140;16.304;2024-01-10T02:01:39;100955.31;;;-9.69;83.39
69855;BME280;57146;48.140;16.304;2024-01-10T02:04:07;100958.19;;;-9.62;83.74
69855;BME280;57146;48.140;16.304;2024-01-10T02:06:34;100951.47;;;-9.63;83.79
69855;BME280;57146;48.140;16.304;2024-01-10T02:09:01;100955.19;;;-9.68;83.77
69855;BME280;57146;48.140;16.304;2024-01-10T02:11:28;100956.38;;;-9.72;83.33
69855;BME280;57146;48.140;16.304;2024-01-10T02:13:57;100956.78;;;-9.76;83.04
69855;BME280;57146;48.140;16.304;2024-01-10T02:16:25;100960.81;;;-9.74;82.87
69855;BME280;57146;48.140;16.304;2024-01-10T02:18:52;100960.69;;;-9.72;83.51
69855;BME280;57146;48.140;16.304;2024-01-10T02:21:23;100958.13;;;-9.72;83.33
69855;BME280;57146;48.140;16.304;2024-01-10T02:23:50;100956.28;;;-9.70;82.78
69855;BME280;57146;48.140;16.304;2024-01-10T02:26:17;100960.56;;;-9.71;83.05
69855;BME280;57146;48.140;16.304;2024-01-10T02:28:44;100963.22;;;-9.72;83.01
69855;BME280;57146;48.140;16.304;2024-01-10T02:31:11;100964.28;;;-9.75;83.00
69855;BME280;57146;48.140;16.304;2024-01-10T02:33:39;100963.84;;;-9.80;82.87
69855;BME280;57146;48.140;16.304;2024-01-10T02:36:06;100958.34;;;-9.85;82.53
69855;BME280;57146;48.140;16.304;2024-01-10T02:38:33;100963.16;;;-9.82;82.50
69855;BME280;57146;48.140;16.304;2024-01-10T02:41:00;100958.63;;;-9.78;83.27
69855;BME280;57146;48.140;16.304;2024-01-10T02:43:28;100958.81;;;-9.70;83.33
69855;BME280;57146;48.140;16.304;2024-01-10T02:45:54;100962.28;;;-9.71;83.39
69855;BME280;57146;48.140;16.304;2024-01-10T02:48:21;100960.00;;;-9.74;83.10
69855;BME280;57146;48.140;16.304;2024-01-10T02:50:48;100954.91;;;-9.74;83.03
69855;BME280;57146;48.140;16.304;2024-01-10T02:53:15;100955.72;;;-9.74;83.65
69855;BME280;57146;48.140;16.304;2024-01-10T02:55:43;100961.63;;;-9.73;83.45
69855;BME280;57146;48.140;16.304;2024-01-10T02:58:10;100951.66;;;-9.76;83.06
69855;BME280;57146;48.140;16.304;2024-01-10T03:00:36;100945.38;;;-9.72;83.61
69855;BME280;57146;48.140;16.304;2024-01-10T03:03:04;100952.91;;;-9.71;83.01
69855;BME280;57146;48.140;16.304;2024-01-10T03:05:30;100957.72;;;-9.77;82.98
69855;BME280;57146;48.140;16.304;2024-01-10T03:07:57;100952.88;;;-9.80;82.59
69855;BME280;57146;48.140;16.304;2024-01-10T03:10:24;100952.72;;;-9.79;82.52
69855;BME280;57146;48.140;16.304;2024-01-10T03:12:51;100951.91;;;-9.79;81.92
69855;BME280;57146;48.140;16.304;2024-01-10T03:15:18;100940.53;;;-9.75;82.23
69855;BME280;57146;48.140;16.304;2024-01-10T03:17:45;100948.63;;;-9.70;81.89
69855;BME280;57146;48.140;16.304;2024-01-10T03:20:12;100956.53;;;-9.73;81.88
69855;BME280;57146;48.140;16.304;2024-01-10T03:22:39;100955.41;;;-9.80;81.80
69855;BME280;57146;48.140;16.304;2024-01-10T03:25:06;100953.28;;;-9.75;82.37
69855;BME280;57146;48.140;16.304;2024-01-10T03:27:33;100950.63;;;-9.74;82.11
69855;BME280;57146;48.140;16.304;2024-01-10T03:30:00;100945.28;;;-9.71;82.67
69855;BME280;57146;48.140;16.304;2024-01-10T03:32:27;100946.88;;;-9.70;82.70
69855;BME280;57146;48.140;16.304;2024-01-10T03:34:54;100944.72;;;-9.74;83.05
69855;BME280;57146;48.140;16.304;2024-01-10T03:37:21;100941.88;;;-9.81;83.31
69855;BME280;57146;48.140;16.304;2024-01-10T03:39:47;100942.91;;;-9.83;83.23
69855;BME280;57146;48.140;16.304;2024-01-10T03:42:14;100947.59;;;-9.89;83.37
69855;BME280;57146;48.140;16.304;2024-01-10T03:44:41;100948.09;;;-9.95;83.33
69855;BME280;57146;48.140;16.304;2024-01-10T03:47:08;100947.91;;;-10.03;82.91
69855;BME280;57146;48.140;16.304;2024-01-10T03:49:35;100948.72;;;-10.02;83.37
69855;BME280;57146;48.140;16.304;2024-01-10T03:52:02;100945.16;;;-10.11;82.63
69855;BME280;57146;48.140;16.304;2024-01-10T03:54:29;100949.69;;;-10.15;82.79
69855;BME280;57146;48.140;16.304;2024-01-10T03:56:56;100941.94;;;-10.13;83.16
69855;BME280;57146;48.140;16.304;2024-01-10T03:59:23;100939.66;;;-10.16;83.22
69855;BME280;57146;48.140;16.304;2024-01-10T04:01:50;100944.59;;;-10.15;82.66
69855;BME280;57146;48.140;16.304;2024-01-10T04:04:17;100944.50;;;-10.13;82.94
69855;BME280;57146;48.140;16.304;2024-01-10T04:06:44;100938.31;;;-10.10;82.93
69855;BME280;57146;48.140;16.304;2024-01-10T04:09:10;100946.09;;;-10.12;82.78
69855;BME280;57146;48.140;16.304;2024-01-10T04:11:37;100946.09;;;-10.12;82.84
69855;BME280;57146;48.140;16.304;2024-01-10T04:14:04;100956.28;;;-10.12;82.59
69855;BME280;57146;48.140;16.304;2024-01-10T04:16:31;100961.38;;;-10.12;83.10
69855;BME280;57146;48.140;16.304;2024-01-10T04:18:58;100949.69;;;-10.15;82.81
69855;BME280;57146;48.140;16.304;2024-01-10T04:21:25;100949.44;;;-10.12;82.78
69855;BME280;57146;48.140;16.304;2024-01-10T04:23:52;100943.56;;;-10.12;83.07
69855;BME280;57146;48.140;16.304;2024-01-10T04:26:20;100944.59;;;-10.15;83.28
69855;BME280;57146;48.140;16.304;2024-01-10T04:28:47;100939.75;;;-10.18;83.08
69855;BME280;57146;48.140;16.304;2024-01-10T04:31:14;100940.84;;;-10.20;83.18
69855;BME280;57146;48.140;16.304;2024-01-10T04:33:41;100938.38;;;-10.22;82.77
69855;BME280;57146;48.140;16.304;2024-01-10T04:36:08;100944.56;;;-10.24;83.26
69855;BME280;57146;48.140;16.304;2024-01-10T04:38:35;100945.22;;;-10.22;82.82
69855;BME280;57146;48.140;16.304;2024-01-10T04:41:02;100938.94;;;-10.28;82.85
69855;BME280;57146;48.140;16.304;2024-01-10T04:43:29;100931.31;;;-10.28;83.46
69855;BME280;57146;48.140;16.304;2024-01-10T04:45:55;100934.75;;;-10.29;83.43
69855;BME280;57146;48.140;16.304;2024-01-10T04:48:22;100939.03;;;-10.29;83.04
69855;BME280;57146;48.140;16.304;2024-01-10T04:50:49;100933.00;;;-10.28;83.50
69855;BME280;57146;48.140;16.304;2024-01-10T04:53:16;100935.56;;;-10.28;83.33
69855;BME280;57146;48.140;16.304;2024-01-10T04:55:43;100934.66;;;-10.18;83.58
69855;BME280;57146;48.140;16.304;2024-01-10T04:58:12;100930.34;;;-10.06;83.59
69855;BME280;57146;48.140;16.304;2024-01-10T05:00:39;100932.63;;;-10.03;83.73
69855;BME280;57146;48.140;16.304;2024-01-10T05:03:06;100929.16;;;-10.02;83.08
69855;BME280;57146;48.140;16.304;2024-01-10T05:05:32;100934.63;;;-10.06;83.15
69855;BME280;57146;48.140;16.304;2024-01-10T05:07:59;100940.06;;;-10.11;82.86
69855;BME280;57146;48.140;16.304;2024-01-10T05:10:27;100932.94;;;-10.17;83.41
69855;BME280;57146;48.140;16.304;2024-01-10T05:12:54;100940.03;;;-10.21;83.25
69855;BME280;57146;48.140;16.304;2024-01-10T05:15:21;100935.03;;;-10.22;83.31
69855;BME280;57146;48.140;16.304;2024-01-10T05:17:47;100924.84;;;-10.22;83.19
69855;BME280;57146;48.140;16.304;2024-01-10T05:20:14;100931.00;;;-10.25;83.05
69855;BME280;57146;48.140;16.304;2024-01-10T05:22:42;100930.75;;;-10.22;83.30
69855;BME280;57146;48.140;16.304;2024-01-10T05:25:09;100929.00;;;-10.21;83.21
69855;BME280;57146;48.140;16.304;2024-01-10T05:27:36;100927.41;;;-10.22;82.96
69855;BME280;57146;48.140;16.304;2024-01-10T05:30:03;100929.16;;;-10.23;83.08
69855;BME280;57146;48.140;16.304;2024-01-10T05:32:30;100926.75;;;-10.24;83.26
69855;BME280;57146;48.140;16.304;2024-01-10T05:34:57;100931.31;;;-10.28;83.54
69855;BME280;57146;48.140;16.304;2024-01-10T05:37:24;100924.72;;;-10.30;83.15
69855;BME280;57146;48.140;16.304;2024-01-10T05:39:51;100934.19;;;-10.32;83.75
69855;BME280;57146;48.140;16.304;2024-01-10T05:42:18;100921.84;;;-10.37;83.64
69855;BME280;57146;48.140;16.304;2024-01-10T05:44:45;100925.44;;;-10.40;83.68
69855;BME280;57146;48.140;16.304;2024-01-10T05:47:12;100921.53;;;-10.44;83.33
69855;BME280;57146;48.140;16.304;2024-01-10T05:49:39;100929.28;;;-10.45;84.08
69855;BME280;57146;48.140;16.304;2024-01-10T05:52:06;100927.66;;;-10.46;84.07
69855;BME280;57146;48.140;16.304;2024-01-10T05:54:32;100930.78;;;-10.43;84.02
69855;BME280;57146;48.140;16.304;2024-01-10T05:56:59;100922.31;;;-10.43;84.35
69855;BME280;57146;48.140;16.304;2024-01-10T05:59:26;100931.59;;;-10.42;84.14
69855;BME280;57146;48.140;16.304;2024-01-10T06:01:56;100929.28;;;-10.45;84.80
69855;BME280;57146;48.140;16.304;2024-01-10T06:04:23;100920.72;;;-10.44;84.69
69855;BME280;57146;48.140;16.304;2024-01-10T06:06:50;100925.00;;;-10.45;84.87
69855;BME280;57146;48.140;16.304;2024-01-10T06:09:17;100926.75;;;-10.45;84.32
69855;BME280;57146;48.140;16.304;2024-01-10T06:11:44;100916.69;;;-10.47;84.34
69855;BME280;57146;48.140;16.304;2024-01-10T06:14:11;100920.16;;;-10.48;84.52
69855;BME280;57146;48.140;16.304;2024-01-10T06:16:37;100922.16;;;-10.51;84.86
69855;BME280;57146;48.140;16.304;2024-01-10T06:19:05;100923.66;;;-10.49;84.37
69855;BME280;57146;48.140;16.304;2024-01-10T06:21:32;100928.03;;;-10.51;84.64
69855;BME280;57146;48.140;16.304;2024-01-10T06:23:59;100929.88;;;-10.53;84.63
69855;BME280;57146;48.140;16.304;2024-01-10T06:26:26;100930.44;;;-10.49;85.21
69855;BME280;57146;48.140;16.304;2024-01-10T06:28:53;100933.69;;;-10.47;84.96
69855;BME280;57146;48.140;16.304;2024-01-10T06:31:20;100931.94;;;-10.47;84.58
69855;BME280;57146;48.140;16.304;2024-01-10T06:33:47;100929.53;;;-10.48;85.19
69855;BME280;57146;48.140;16.304;2024-01-10T06:36:14;100932.19;;;-10.50;84.70
69855;BME280;57146;48.140;16.304;2024-01-10T06:38:41;100937.28;;;-10.50;84.93
69855;BME280;57146;48.140;16.304;2024-01-10T06:41:09;100936.63;;;-10.52;84.93
69855;BME280;57146;48.140;16.304;2024-01-10T06:43:37;100931.16;;;-10.47;84.75
69855;BME280;57146;48.140;16.304;2024-01-10T06:46:04;100940.28;;;-10.45;84.83
69855;BME280;57146;48.140;16.304;2024-01-10T06:48:31;100942.94;;;-10.46;85.51
69855;BME280;57146;48.140;16.304;2024-01-10T06:50:59;100953.25;;;-10.48;85.88
69855;BME280;57146;48.140;16.304;2024-01-10T06:53:25;100948.88;;;-10.46;85.66
69855;BME280;57146;48.140;16.304;2024-01-10T06:55:52;100947.69;;;-10.42;85.50
69855;BME280;57146;48.140;16.304;2024-01-10T06:58:19;100952.41;;;-10.37;85.22
69855;BME280;57146;48.140;16.304;2024-01-10T07:00:46;100950.53;;;-10.35;85.63
69855;BME280;57146;48.140;16.304;2024-01-10T07:03:13;100952.81;;;-10.32;85.54
69855;BME280;57146;48.140;16.304;2024-01-10T07:05:40;100962.09;;;-10.31;85.67
69855;BME280;57146;48.140;16.304;2024-01-10T07:08:07;100954.47;;;-10.21;86.22
69855;BME280;57146;48.140;16.304;2024-01-10T07:10:34;100956.78;;;-10.18;85.81
69855;BME280;57146;48.140;16.304;2024-01-10T07:13:01;100950.50;;;-10.14;86.36
69855;BME280;57146;48.140;16.304;2024-01-10T07:15:28;100957.00;;;-10.10;86.08
69855;BME280;57146;48.140;16.304;2024-01-10T07:17:55;100958.78;;;-10.01;86.09
69855;BME280;57146;48.140;16.304;2024-01-10T07:20:22;100955.72;;;-9.95;86.00
69855;BME280;57146;48.140;16.304;2024-01-10T07:22:49;100959.78;;;-9.92;85.94
69855;BME280;57146;48.140;16.304;2024-01-10T07:25:15;100963.00;;;-9.90;85.93
69855;BME280;57146;48.140;16.304;2024-01-10T07:27:43;100967.72;;;-9.85;86.36
69855;BME280;57146;48.140;16.304;2024-01-10T07:30:10;100966.53;;;-9.81;85.85
69855;BME280;57146;48.140;16.304;2024-01-10T07:32:37;100967.75;;;-9.76;86.00
69855;BME280;57146;48.140;16.304;2024-01-10T07:35:05;100970.75;;;-9.71;85.60
69855;BME280;57146;48.140;16.304;2024-01-10T07:37:32;100961.69;;;-9.63;85.67
69855;BME280;57146;48.140;16.304;2024-01-10T07:39:58;100963.13;;;-9.61;85.99
69855;BME280;57146;48.140;16.304;2024-01-10T07:42:25;100974.59;;;-9.55;86.22
69855;BME280;57146;48.140;16.304;2024-01-10T07:44:52;100973.25;;;-9.50;86.07
69855;BME280;57146;48.140;16.304;2024-01-10T07:47:20;100973.81;;;-9.46;86.41
69855;BME280;57146;48.140;16.304;2024-01-10T07:49:47;100970.88;;;-9.42;86.32
69855;BME280;57146;48.140;16.304;2024-01-10T07:52:14;100974.53;;;-9.34;86.35
69855;BME280;57146;48.140;16.304;2024-01-10T07:54:41;100974.84;;;-9.28;86.62
69855;BME280;57146;48.140;16.304;2024-01-10T07:57:08;100976.03;;;-9.22;86.23
69855;BME280;57146;48.140;16.304;2024-01-10T07:59:34;100972.19;;;-9.17;86.28
69855;BME280;57146;48.140;16.304;2024-01-10T08:02:01;100977.69;;;-9.11;86.31
69855;BME280;57146;48.140;16.304;2024-01-10T08:04:28;100979.88;;;-9.07;85.85
69855;BME280;57146;48.140;16.304;2024-01-10T08:06:55;100981.22;;;-9.03;85.22
69855;BME280;57146;48.140;16.304;2024-01-10T08:09:22;100978.13;;;-8.97;84.43
69855;BME280;57146;48.140;16.304;2024-01-10T08:11:50;100982.06;;;-8.93;84.47
69855;BME280;57146;48.140;16.304;2024-01-10T08:14:17;100980.44;;;-8.84;84.48
69855;BME280;57146;48.140;16.304;2024-01-10T08:16:44;100980.72;;;-8.77;84.26
69855;BME280;57146;48.140;16.304;2024-01-10T08:19:14;100982.88;;;-8.73;83.88
69855;BME280;57146;48.140;16.304;2024-01-10T08:21:41;100979.66;;;-8.65;83.76
69855;BME280;57146;48.140;16.304;2024-01-10T08:24:08;100980.75;;;-8.58;83.27
69855;BME280;57146;48.140;16.304;2024-01-10T08:26:35;100984.25;;;-8.49;83.19
69855;BME280;57146;48.140;16.304;2024-01-10T08:29:02;100971.78;;;-8.42;82.99
69855;BME280;57146;48.140;16.304;2024-01-10T08:31:29;100979.25;;;-8.31;83.19
69855;BME280;57146;48.140;16.304;2024-01-10T08:33:56;100976.97;;;-8.25;82.61
69855;BME280;57146;48.140;16.304;2024-01-10T08:36:23;100984.91;;;-8.18;82.39
69855;BME280;57146;48.140;16.304;2024-01-10T08:38:50;100982.47;;;-8.10;82.49
69855;BME280;57146;48.140;16.304;2024-01-10T08:41:17;100979.75;;;-7.99;82.36
69855;BME280;57146;48.140;16.304;2024-01-10T08:43:44;100984.47;;;-7.94;81.91
69855;BME280;57146;48.140;16.304;2024-01-10T08:46:11;100989.84;;;-7.87;81.56
69855;BME280;57146;48.140;16.304;2024-01-10T08:48:38;101003.56;;;-7.79;81.37
69855;BME280;57146;48.140;16.304;2024-01-10T08:51:05;100992.22;;;-7.76;81.53
69855;BME280;57146;48.140;16.304;2024-01-10T08:53:32;100988.88;;;-7.77;80.99
69855;BME280;57146;48.140;16.304;2024-01-10T08:55:59;100993.28;;;-7.69;81.13
69855;BME280;57146;48.140;16.304;2024-01-10T08:58:27;100986.03;;;-7.64;81.11
69855;BME280;57146;48.140;16.304;2024-01-10T09:00:54;100987.34;;;-7.60;80.66
69855;BME280;57146;48.140;16.304;2024-01-10T09:03:21;100983.84;;;-7.59;80.32
69855;BME280;57146;48.140;16.304;2024-01-10T09:05:48;100983.84;;;-7.59;80.11
69855;BME280;57146;48.140;16.304;2024-01-10T09:08:30;100987.59;;;-7.53;80.01
69855;BME280;57146;48.140;16.304;2024-01-10T09:10:57;100993.53;;;-7.53;80.45
69855;BME280;57146;48.140;16.304;2024-01-10T09:13:24;100986.75;;;-7.44;79.78
69855;BME280;57146;48.140;16.304;2024-01-10T09:15:51;100980.13;;;-7.37;79.09
69855;BME280;57146;48.140;16.304;2024-01-10T09:18:18;100982.66;;;-7.27;80.07
69855;BME280;57146;48.140;16.304;2024-01-10T09:20:45;100983.69;;;-7.20;79.50
69855;BME280;57146;48.140;16.304;2024-01-10T09:23:13;100985.41;;;-7.11;79.22
69855;BME280;57146;48.140;16.304;2024-01-10T09:25:40;100992.38;;;-7.03;78.40
69855;BME280;57146;48.140;16.304;2024-01-10T09:28:09;100979.38;;;-6.92;78.71
69855;BME280;57146;48.140;16.304;2024-01-10T09:30:36;100985.69;;;-6.86;78.27
69855;BME280;57146;48.140;16.304;2024-01-10T09:33:07;100975.88;;;-6.73;78.13
69855;BME280;57146;48.140;16.304;2024-01-10T09:35:35;100977.88;;;-6.67;78.08
69855;BME280;57146;48.140;16.304;2024-01-10T09:38:02;100984.53;;;-6.56;77.58
69855;BME280;57146;48.140;16.304;2024-01-10T09:40:29;100976.00;;;-6.47;77.79
69855;BME280;57146;48.140;16.304;2024-01-10T09:42:56;100970.75;;;-6.37;77.04
69855;BME280;57146;48.140;16.304;2024-01-10T09:45:24;100963.59;;;-6.34;76.97
69855;BME280;57146;48.140;16.304;2024-01-10T09:47:56;100958.53;;;-6.25;76.70
69855;BME280;57146;48.140;16.304;2024-01-10T09:50:23;100954.72;;;-6.21;76.94
69855;BME280;57146;48.140;16.304;2024-01-10T09:52:52;100956.38;;;-6.12;76.95
69855;BME280;57146;48.140;16.304;2024-01-10T09:55:21;100949.06;;;-6.07;76.94
69855;BME280;57146;48.140;16.304;2024-01-10T09:57:51;100949.41;;;-6.02;76.61
69855;BME280;57146;48.140;16.304;2024-01-10T10:00:18;100941.63;;;-5.92;76.34
69855;BME280;57146;48.140;16.304;2024-01-10T10:02:46;100943.69;;;-5.88;76.46
69855;BME280;57146;48.140;16.304;2024-01-10T10:05:14;100940.53;;;-5.82;76.58
69855;BME280;57146;48.140;16.304;2024-01-10T10:07:50;100949.53;;;-5.78;76.45
69855;BME280;57146;48.140;16.304;2024-01-10T10:10:18;100949.56;;;-5.69;76.34
69855;BME280;57146;48.140;16.304;2024-01-10T10:12:46;100944.63;;;-5.63;76.44
69855;BME280;57146;48.140;16.304;2024-01-10T10:15:15;100937.50;;;-5.51;76.15
69855;BME280;57146;48.140;16.304;2024-01-10T10:17:46;100935.75;;;-5.42;76.02
69855;BME280;57146;48.140;16.304;2024-01-10T10:20:29;100934.19;;;-5.35;75.92
69855;BME280;57146;48.140;16.304;2024-01-10T10:23:07;100935.16;;;-5.28;75.51
69855;BME280;57146;48.140;16.304;2024-01-10T10:25:44;100923.66;;;-5.16;75.78
69855;BME280;57146;48.140;16.304;2024-01-10T10:28:12;100919.66;;;-5.10;75.86
69855;BME280;57146;48.140;16.304;2024-01-10T10:30:55;100922.56;;;-5.05;75.61
69855;BME280;57146;48.140;16.304;2024-01-10T10:33:22;100924.34;;;-4.97;75.38
69855;BME280;57146;48.140;16.304;2024-01-10T10:35:50;100917.44;;;-4.89;74.70
69855;BME280;57146;48.140;16.304;2024-01-10T10:38:21;100914.41;;;-4.84;74.19
69855;BME280;57146;48.140;16.304;2024-01-10T10:40:49;100906.06;;;-4.78;75.46
69855;BME280;57146;48.140;16.304;2024-01-10T10:43:19;100906.56;;;-4.74;75.66
69855;BME280;57146;48.140;16.304;2024-01-10T10:45:48;100908.63;;;-4.70;74.30
69855;BME280;57146;48.140;16.304;2024-01-10T10:48:17;100905.25;;;-4.70;74.22
69855;BME280;57146;48.140;16.304;2024-01-10T10:50:57;100901.41;;;-4.66;74.99
69855;BME280;57146;48.140;16.304;2024-01-10T10:53:27;100894.03;;;-4.61;75.29
69855;BME280;57146;48.140;16.304;2024-01-10T10:55:56;100891.94;;;-4.58;74.85
69855;BME280;57146;48.140;16.304;2024-01-10T10:58:23;100881.81;;;-4.43;74.91
69855;BME280;57146;48.140;16.304;2024-01-10T11:00:52;100878.59;;;-4.37;74.47
69855;BME280;57146;48.140;16.304;2024-01-10T11:03:19;100881.66;;;-4.33;74.49
69855;BME280;57146;48.140;16.304;2024-01-10T11:05:47;100883.56;;;-4.27;75.17
69855;BME280;57146;48.140;16.304;2024-01-10T11:08:17;100872.00;;;-4.23;75.20
69855;BME280;57146;48.140;16.304;2024-01-10T11:10:48;100868.94;;;-4.18;75.71
69855;BME280;57146;48.140;16.304;2024-01-10T11:13:27;100861.38;;;-4.12;75.46
69855;BME280;57146;48.140;16.304;2024-01-10T11:25:08;100839.94;;;-3.96;75.94
69855;BME280;57146;48.140;16.304;2024-01-10T11:27:36;100835.09;;;-3.91;75.53
69855;BME280;57146;48.140;16.304;2024-01-10T11:30:05;100827.84;;;-3.87;75.71
69855;BME280;57146;48.140;16.304;2024-01-10T11:32:32;100828.16;;;-3.82;76.04
69855;BME280;57146;48.140;16.304;2024-01-10T11:35:00;100818.78;;;-3.75;75.56
69855;BME280;57146;48.140;16.304;2024-01-10T11:37:44;100817.47;;;-3.63;75.06
69855;BME280;57146;48.140;16.304;2024-01-10T11:40:12;100820.50;;;-3.59;75.57
69855;BME280;57146;48.140;16.304;2024-01-10T11:42:43;100813.25;;;-3.55;76.01
69855;BME280;57146;48.140;16.304;2024-01-10T11:45:35;100809.47;;;-3.45;76.86
69855;BME280;57146;48.140;16.304;2024-01-10T11:48:03;100802.72;;;-3.23;75.72
69855;BME280;57146;48.140;16.304;2024-01-10T11:50:29;100807.47;;;-3.11;75.28
69855;BME280;57146;48.140;16.304;2024-01-10T11:52:57;100802.09;;;-3.02;75.01
69855;BME280;57146;48.140;16.304;2024-01-10T11:55:52;100793.19;;;-2.99;74.54
69855;BME280;57146;48.140;16.304;2024-01-10T11:58:19;100786.03;;;-2.89;74.46
69855;BME280;57146;48.140;16.304;2024-01-10T12:00:46;100781.19;;;-2.84;73.95
69855;BME280;57146;48.140;16.304;2024-01-10T12:03:14;100780.75;;;-2.73;73.40
69855;BME280;57146;48.140;16.304;2024-01-10T12:05:42;100781.34;;;-2.71;73.87
69855;BME280;57146;48.140;16.304;2024-01-10T12:08:09;100781.00;;;-2.68;73.57
69855;BME280;57146;48.140;16.304;2024-01-10T12:10:45;100780.78;;;-2.58;73.39
69855;BME280;57146;48.140;16.304;2024-01-10T12:13:12;100773.28;;;-2.53;72.64
69855;BME280;57146;48.140;16.304;2024-01-10T12:15:39;100769.91;;;-2.53;73.25
69855;BME280;57146;48.140;16.304;2024-01-10T12:18:06;100772.59;;;-2.47;72.93
69855;BME280;57146;48.140;16.304;2024-01-10T12:20:33;100770.66;;;-2.45;72.54
69855;BME280;57146;48.140;16.304;2024-01-10T12:23:00;100767.88;;;-2.43;72.81
69855;BME280;57146;48.140;16.304;2024-01-10T12:25:26;100767.34;;;-2.38;73.40
69855;BME280;57146;48.140;16.304;2024-01-10T12:27:53;100763.25;;;-2.33;73.11
69855;BME280;57146;48.140;16.304;2024-01-10T12:30:20;100773.03;;;-2.28;72.96
69855;BME280;57146;48.140;16.304;2024-01-10T12:32:50;100757.94;;;-2.17;72.20
69855;BME280;57146;48.140;16.304;2024-01-10T12:35:18;100756.75;;;-2.14;72.27
69855;BME280;57146;48.140;16.304;2024-01-10T12:37:53;100751.22;;;-2.11;71.83
69855;BME280;57146;48.140;16.304;2024-01-10T12:40:21;100757.47;;;-2.05;71.84
69855;BME280;57146;48.140;16.304;2024-01-10T12:42:48;100755.47;;;-2.03;71.37
69855;BME280;57146;48.140;16.304;2024-01-10T12:45:22;100757.28;;;-2.04;72.04
69855;BME280;57146;48.140;16.304;2024-01-10T12:47:49;100762.06;;;-2.01;72.08
69855;BME280;57146;48.140;16.304;2024-01-10T12:50:16;100759.94;;;-1.97;72.36